sensor_id;sensor_type;location;lat;lon;timestamp;P1;durP1;ratioP1;P2;durP2;ratioP2
31866;SDS011;18431;45.580;-122.680;2022-07-09T00:02:22;0.60;;;0.60;;
31866;SDS011;18431;45.580;-122.680;2022-07-09T00:04:51;0.70;;;0.70;;
31866;SDS011;18431;45.580;-122.680;2022-07-09T00:07:21;0.47;;;0.47;;
31866;SDS011;18431;45.580;-122.680;2022-07-09T00:09:51;0.68;;;0.68;;
31866;SDS011;18431;45.580;-122.680;2022-07-09T00:12:21;0.70;;;0.70;;
31866;SDS011;18431;45.580;-122.680;2022-07-09T00:14:51;0.60;;;0.60;;
31866;SDS011;18431;45.580;-122.680;2022-07-09T00:17:21;0.80;;;0.80;;
31866;SDS011;18431;45.580;-122.680;2022-07-09T00:19:51;0.50;;;0.50;;
31866;SDS011;18431;45.580;-122.680;2022-07-09T00:22:21;0.50;;;0.50;;
31866;SDS011;18431;45.580;-122.680;2022-07-09T00:24:51;0.72;;;0.60;;
31866;SDS011;18431;45.580;-122.680;2022-07-09T00:27:20;0.60;;;0.60;;
31866;SDS011;18431;45.580;-122.680;2022-07-09T00:29:50;0.70;;;0.70;;
31866;SDS011;18431;45.580;-122.680;2022-07-09T00:35:09;0.80;;;0.80;;
31866;SDS011;18431;45.580;-122.680;2022-07-09T00:37:39;1.05;;;0.70;;
31866;SDS011;18431;45.580;-122.680;2022-07-09T00:40:09;0.60;;;0.60;;
31866;SDS011;18431;45.580;-122.680;2022-07-09T00:42:39;0.65;;;0.65;;
31866;SDS011;18431;45.580;-122.680;2022-07-09T00:45:09;0.78;;;0.78;;
31866;SDS011;18431;45.580;-122.680;2022-07-09T00:47:39;0.80;;;0.80;;
31866;SDS011;18431;45.580;-122.680;2022-07-09T00:50:08;0.62;;;0.62;;
31866;SDS011;18431;45.580;-122.680;2022-07-09T00:52:38;0.57;;;0.57;;
31866;SDS011;18431;45.580;-122.680;2022-07-09T00:55:09;0.80;;;0.80;;
31866;SDS011;18431;45.580;-122.680;2022-07-09T00:57:40;0.50;;;0.50;;
31866;SDS011;18431;45.580;-122.680;2022-07-09T01:00:10;0.70;;;0.70;;
31866;SDS011;18431;45.580;-122.680;2022-07-09T01:02:41;0.50;;;0.50;;
31866;SDS011;18431;45.580;-122.680;2022-07-09T01:05:11;0.57;;;0.57;;
31866;SDS011;18431;45.580;-122.680;2022-07-09T01:07:41;0.53;;;0.53;;
31866;SDS011;18431;45.580;-122.680;2022-07-09T01:10:11;0.47;;;0.47;;
31866;SDS011;18431;45.580;-122.680;2022-07-09T01:12:41;0.50;;;0.50;;
31866;SDS011;18431;45.580;-122.680;2022-07-09T01:15:13;0.60;;;0.60;;
31866;SDS011;18431;45.580;-122.680;2022-07-09T01:17:43;0.80;;;0.80;;
31866;SDS011;18431;45.580;-122.680;2022-07-09T01:20:14;1.10;;;0.40;;
31866;SDS011;18431;45.580;-122.680;2022-07-09T01:22:45;0.40;;;0.40;;
31866;SDS011;18431;45.580;-122.680;2022-07-09T01:25:16;0.40;;;0.40;;
31866;SDS011;18431;45.580;-122.680;2022-07-09T01:27:47;0.50;;;0.50;;
31866;SDS011;18431;45.580;-122.680;2022-07-09T01:30:27;0.30;;;0.30;;
31866;SDS011;18431;45.580;-122.680;2022-07-09T01:32:54;0.30;;;0.30;;
31866;SDS011;18431;45.580;-122.680;2022-07-09T01:35:24;0.30;;;0.30;;
31866;SDS011;18431;45.580;-122.680;2022-07-09T01:37:57;0.30;;;0.30;;
31866;SDS011;18431;45.580;-122.680;2022-07-09T01:40:29;0.30;;;0.30;;
31866;SDS011;18431;45.580;-122.680;2022-07-09T01:43:00;0.30;;;0.30;;
31866;SDS011;18431;45.580;-122.680;2022-07-09T01:45:30;0.30;;;0.30;;
31866;SDS011;18431;45.580;-122.680;2022-07-09T01:48:00;0.40;;;0.40;;
31866;SDS011;18431;45.580;-122.680;2022-07-09T01:50:31;0.30;;;0.30;;
31866;SDS011;18431;45.580;-122.680;2022-07-09T01:53:01;0.23;;;0.23;;
31866;SDS011;18431;45.580;-122.680;2022-07-09T01:55:31;0.25;;;0.25;;
31866;SDS011;18431;45.580;-122.680;2022-07-09T01:58:03;0.90;;;0.30;;
31866;SDS011;18431;45.580;-122.680;2022-07-09T02:00:32;0.23;;;0.23;;
31866;SDS011;18431;45.580;-122.680;2022-07-09T02:03:02;0.30;;;0.30;;
31866;SDS011;18431;45.580;-122.680;2022-07-09T02:05:34;0.28;;;0.28;;
31866;SDS011;18431;45.580;-122.680;2022-07-09T02:08:03;0.30;;;0.30;;
31866;SDS011;18431;45.580;-122.680;2022-07-09T02:10:33;0.10;;;0.10;;
31866;SDS011;18431;45.580;-122.680;2022-07-09T02:13:03;0.35;;;0.35;;
31866;SDS011;18431;45.580;-122.680;2022-07-09T02:15:33;0.23;;;0.23;;
31866;SDS011;18431;45.580;-122.680;2022-07-09T02:18:03;0.30;;;0.30;;
31866;SDS011;18431;45.580;-122.680;2022-07-09T02:20:33;0.20;;;0.20;;
31866;SDS011;18431;45.580;-122.680;2022-07-09T02:23:03;0.30;;;0.30;;
31866;SDS011;18431;45.580;-122.680;2022-07-09T02:25:33;0.20;;;0.20;;
31866;SDS011;18431;45.580;-122.680;2022-07-09T02:28:02;0.30;;;0.30;;
31866;SDS011;18431;45.580;-122.680;2022-07-09T02:30:33;0.20;;;0.20;;
31866;SDS011;18431;45.580;-122.680;2022-07-09T02:33:04;0.10;;;0.10;;
31866;SDS011;18431;45.580;-122.680;2022-07-09T02:35:34;0.20;;;0.20;;
31866;SDS011;18431;45.580;-122.680;2022-07-09T02:38:05;0.13;;;0.13;;
31866;SDS011;18431;45.580;-122.680;2022-07-09T02:40:35;0.35;;;0.35;;
31866;SDS011;18431;45.580;-122.680;2022-07-09T02:43:05;0.10;;;0.10;;
31866;SDS011;18431;45.580;-122.680;2022-07-09T02:45:35;0.10;;;0.10;;
31866;SDS011;18431;45.580;-122.680;2022-07-09T02:48:05;0.20;;;0.20;;
31866;SDS011;18431;45.580;-122.680;2022-07-09T02:50:35;0.17;;;0.17;;
31866;SDS011;18431;45.580;-122.680;2022-07-09T02:53:04;0.10;;;0.10;;
31866;SDS011;18431;45.580;-122.680;2022-07-09T02:55:34;0.10;;;0.10;;
31866;SDS011;18431;45.580;-122.680;2022-07-09T02:58:04;0.10;;;0.10;;
31866;SDS011;18431;45.580;-122.680;2022-07-09T03:00:34;0.10;;;0.10;;
31866;SDS011;18431;45.580;-122.680;2022-07-09T03:03:04;0.10;;;0.10;;
31866;SDS011;18431;45.580;-122.680;2022-07-09T03:05:33;0.13;;;0.10;;
31866;SDS011;18431;45.580;-122.680;2022-07-09T03:08:03;0.10;;;0.10;;
31866;SDS011;18431;45.580;-122.680;2022-07-09T03:10:35;0.30;;;0.30;;
31866;SDS011;18431;45.580;-122.680;2022-07-09T03:13:06;0.15;;;0.15;;
31866;SDS011;18431;45.580;-122.680;2022-07-09T03:15:37;0.20;;;0.20;;
31866;SDS011;18431;45.580;-122.680;2022-07-09T03:18:07;0.10;;;0.10;;
31866;SDS011;18431;45.580;-122.680;2022-07-09T03:20:37;0.10;;;0.10;;
31866;SDS011;18431;45.580;-122.680;2022-07-09T03:23:07;0.10;;;0.10;;
31866;SDS011;18431;45.580;-122.680;2022-07-09T03:25:38;0.20;;;0.20;;
31866;SDS011;18431;45.580;-122.680;2022-07-09T03:28:08;0.88;;;0.20;;
31866;SDS011;18431;45.580;-122.680;2022-07-09T03:30:38;0.10;;;0.10;;
31866;SDS011;18431;45.580;-122.680;2022-07-09T03:33:08;0.20;;;0.20;;
31866;SDS011;18431;45.580;-122.680;2022-07-09T03:35:38;0.23;;;0.23;;
31866;SDS011;18431;45.580;-122.680;2022-07-09T03:38:08;0.20;;;0.20;;
31866;SDS011;18431;45.580;-122.680;2022-07-09T03:40:38;0.20;;;0.20;;
31866;SDS011;18431;45.580;-122.680;2022-07-09T03:43:07;0.20;;;0.20;;
31866;SDS011;18431;45.580;-122.680;2022-07-09T03:45:37;0.40;;;0.20;;
31866;SDS011;18431;45.580;-122.680;2022-07-09T03:48:07;0.10;;;0.10;;
31866;SDS011;18431;45.580;-122.680;2022-07-09T03:50:37;0.30;;;0.30;;
31866;SDS011;18431;45.580;-122.680;2022-07-09T03:53:07;0.25;;;0.20;;
31866;SDS011;18431;45.580;-122.680;2022-07-09T03:55:37;0.10;;;0.10;;
31866;SDS011;18431;45.580;-122.680;2022-07-09T03:58:07;0.13;;;0.13;;
31866;SDS011;18431;45.580;-122.680;2022-07-09T04:00:37;0.15;;;0.15;;
31866;SDS011;18431;45.580;-122.680;2022-07-09T04:03:07;0.20;;;0.20;;
31866;SDS011;18431;45.580;-122.680;2022-07-09T04:05:37;0.20;;;0.20;;
31866;SDS011;18431;45.580;-122.680;2022-07-09T04:08:08;0.25;;;0.25;;
31866;SDS011;18431;45.580;-122.680;2022-07-09T04:10:38;0.20;;;0.20;;
31866;SDS011;18431;45.580;-122.680;2022-07-09T04:13:08;0.20;;;0.20;;
31866;SDS011;18431;45.580;-122.680;2022-07-09T04:15:38;0.23;;;0.23;;
31866;SDS011;18431;45.580;-122.680;2022-07-09T04:18:08;0.20;;;0.20;;
31866;SDS011;18431;45.580;-122.680;2022-07-09T04:20:38;0.37;;;0.35;;
31866;SDS011;18431;45.580;-122.680;2022-07-09T04:23:08;0.30;;;0.30;;
31866;SDS011;18431;45.580;-122.680;2022-07-09T04:28:27;0.20;;;0.20;;
31866;SDS011;18431;45.580;-122.680;2022-07-09T04:30:56;0.20;;;0.20;;
31866;SDS011;18431;45.580;-122.680;2022-07-09T04:33:26;0.13;;;0.13;;
31866;SDS011;18431;45.580;-122.680;2022-07-09T04:35:56;0.20;;;0.20;;
31866;SDS011;18431;45.580;-122.680;2022-07-09T04:38:26;0.10;;;0.10;;
31866;SDS011;18431;45.580;-122.680;2022-07-09T04:40:56;0.17;;;0.17;;
31866;SDS011;18431;45.580;-122.680;2022-07-09T04:43:26;0.20;;;0.20;;
31866;SDS011;18431;45.580;-122.680;2022-07-09T04:45:56;0.15;;;0.10;;
31866;SDS011;18431;45.580;-122.680;2022-07-09T04:48:27;0.45;;;0.20;;
31866;SDS011;18431;45.580;-122.680;2022-07-09T04:50:56;0.28;;;0.20;;
31866;SDS011;18431;45.580;-122.680;2022-07-09T04:53:26;0.20;;;0.20;;
31866;SDS011;18431;45.580;-122.680;2022-07-09T04:55:56;0.20;;;0.10;;
31866;SDS011;18431;45.580;-122.680;2022-07-09T04:58:26;0.10;;;0.10;;
31866;SDS011;18431;45.580;-122.680;2022-07-09T05:00:57;0.20;;;0.20;;
31866;SDS011;18431;45.580;-122.680;2022-07-09T05:03:26;0.10;;;0.10;;
31866;SDS011;18431;45.580;-122.680;2022-07-09T05:05:56;0.15;;;0.15;;
31866;SDS011;18431;45.580;-122.680;2022-07-09T05:08:26;0.15;;;0.15;;
31866;SDS011;18431;45.580;-122.680;2022-07-09T05:10:56;0.30;;;0.23;;
31866;SDS011;18431;45.580;-122.680;2022-07-09T05:13:26;0.85;;;0.20;;
31866;SDS011;18431;45.580;-122.680;2022-07-09T05:15:56;0.10;;;0.10;;
31866;SDS011;18431;45.580;-122.680;2022-07-09T05:18:25;0.10;;;0.10;;
31866;SDS011;18431;45.580;-122.680;2022-07-09T05:20:57;0.20;;;0.20;;
31866;SDS011;18431;45.580;-122.680;2022-07-09T05:23:27;0.20;;;0.20;;
31866;SDS011;18431;45.580;-122.680;2022-07-09T05:25:56;0.15;;;0.15;;
31866;SDS011;18431;45.580;-122.680;2022-07-09T05:28:26;0.15;;;0.15;;
31866;SDS011;18431;45.580;-122.680;2022-07-09T05:30:57;0.20;;;0.20;;
31866;SDS011;18431;45.580;-122.680;2022-07-09T05:33:26;0.10;;;0.10;;
31866;SDS011;18431;45.580;-122.680;2022-07-09T05:35:56;0.20;;;0.20;;
31866;SDS011;18431;45.580;-122.680;2022-07-09T05:38:26;0.20;;;0.15;;
31866;SDS011;18431;45.580;-122.680;2022-07-09T05:40:56;0.10;;;0.10;;
31866;SDS011;18431;45.580;-122.680;2022-07-09T05:43:26;0.20;;;0.20;;
31866;SDS011;18431;45.580;-122.680;2022-07-09T05:45:55;0.20;;;0.20;;
31866;SDS011;18431;45.580;-122.680;2022-07-09T05:48:26;0.10;;;0.10;;
31866;SDS011;18431;45.580;-122.680;2022-07-09T05:50:56;0.10;;;0.10;;
31866;SDS011;18431;45.580;-122.680;2022-07-09T05:53:26;0.20;;;0.20;;
31866;SDS011;18431;45.580;-122.680;2022-07-09T05:55:55;0.10;;;0.10;;
31866;SDS011;18431;45.580;-122.680;2022-07-09T05:58:25;0.20;;;0.20;;
31866;SDS011;18431;45.580;-122.680;2022-07-09T06:00:55;0.17;;;0.17;;
31866;SDS011;18431;45.580;-122.680;2022-07-09T06:03:25;0.10;;;0.10;;
31866;SDS011;18431;45.580;-122.680;2022-07-09T06:05:55;0.30;;;0.13;;
31866;SDS011;18431;45.580;-122.680;2022-07-09T06:08:25;0.45;;;0.20;;
31866;SDS011;18431;45.580;-122.680;2022-07-09T06:10:55;0.20;;;0.20;;
31866;SDS011;18431;45.580;-122.680;2022-07-09T06:13:25;0.10;;;0.10;;
31866;SDS011;18431;45.580;-122.680;2022-07-09T06:15:55;0.30;;;0.30;;
31866;SDS011;18431;45.580;-122.680;2022-07-09T06:18:24;0.20;;;0.20;;
31866;SDS011;18431;45.580;-122.680;2022-07-09T06:20:54;0.28;;;0.28;;
31866;SDS011;18431;45.580;-122.680;2022-07-09T06:23:25;0.20;;;0.20;;
31866;SDS011;18431;45.580;-122.680;2022-07-09T06:25:57;0.20;;;0.20;;
31866;SDS011;18431;45.580;-122.680;2022-07-09T06:28:28;0.30;;;0.30;;
31866;SDS011;18431;45.580;-122.680;2022-07-09T06:30:57;0.30;;;0.30;;
31866;SDS011;18431;45.580;-122.680;2022-07-09T06:33:27;0.40;;;0.23;;
31866;SDS011;18431;45.580;-122.680;2022-07-09T06:35:57;0.20;;;0.20;;
31866;SDS011;18431;45.580;-122.680;2022-07-09T06:38:28;0.33;;;0.33;;
31866;SDS011;18431;45.580;-122.680;2022-07-09T06:40:58;0.20;;;0.20;;
31866;SDS011;18431;45.580;-122.680;2022-07-09T06:43:28;0.20;;;0.20;;
31866;SDS011;18431;45.580;-122.680;2022-07-09T06:45:57;0.30;;;0.30;;
31866;SDS011;18431;45.580;-122.680;2022-07-09T06:48:27;0.25;;;0.25;;
31866;SDS011;18431;45.580;-122.680;2022-07-09T06:50:57;0.30;;;0.30;;
31866;SDS011;18431;45.580;-122.680;2022-07-09T06:53:29;0.28;;;0.28;;
31866;SDS011;18431;45.580;-122.680;2022-07-09T06:55:58;0.20;;;0.20;;
31866;SDS011;18431;45.580;-122.680;2022-07-09T06:58:28;0.33;;;0.23;;
31866;SDS011;18431;45.580;-122.680;2022-07-09T07:00:58;0.20;;;0.20;;
31866;SDS011;18431;45.580;-122.680;2022-07-09T07:03:28;0.40;;;0.40;;
31866;SDS011;18431;45.580;-122.680;2022-07-09T07:05:58;0.30;;;0.30;;
31866;SDS011;18431;45.580;-122.680;2022-07-09T07:08:28;0.20;;;0.20;;
31866;SDS011;18431;45.580;-122.680;2022-07-09T07:10:59;0.30;;;0.30;;
31866;SDS011;18431;45.580;-122.680;2022-07-09T07:16:17;0.28;;;0.20;;
31866;SDS011;18431;45.580;-122.680;2022-07-09T07:18:47;0.23;;;0.23;;
31866;SDS011;18431;45.580;-122.680;2022-07-09T07:21:18;0.30;;;0.30;;
31866;SDS011;18431;45.580;-122.680;2022-07-09T07:23:47;0.47;;;0.20;;
31866;SDS011;18431;45.580;-122.680;2022-07-09T07:26:19;0.35;;;0.35;;
31866;SDS011;18431;45.580;-122.680;2022-07-09T07:29:07;0.78;;;0.40;;
31866;SDS011;18431;45.580;-122.680;2022-07-09T07:31:37;0.68;;;0.30;;
31866;SDS011;18431;45.580;-122.680;2022-07-09T07:34:07;0.30;;;0.30;;
31866;SDS011;18431;45.580;-122.680;2022-07-09T07:36:37;0.35;;;0.30;;
31866;SDS011;18431;45.580;-122.680;2022-07-09T07:39:07;0.20;;;0.20;;
31866;SDS011;18431;45.580;-122.680;2022-07-09T07:41:37;0.30;;;0.30;;
31866;SDS011;18431;45.580;-122.680;2022-07-09T07:44:26;0.20;;;0.20;;
31866;SDS011;18431;45.580;-122.680;2022-07-09T07:46:56;0.37;;;0.30;;
31866;SDS011;18431;45.580;-122.680;2022-07-09T07:49:26;0.30;;;0.30;;
31866;SDS011;18431;45.580;-122.680;2022-07-09T07:54:46;0.25;;;0.25;;
31866;SDS011;18431;45.580;-122.680;2022-07-09T07:57:16;0.20;;;0.20;;
31866;SDS011;18431;45.580;-122.680;2022-07-09T07:59:45;0.40;;;0.40;;
31866;SDS011;18431;45.580;-122.680;2022-07-09T08:02:15;0.40;;;0.40;;
31866;SDS011;18431;45.580;-122.680;2022-07-09T08:04:45;0.42;;;0.42;;
31866;SDS011;18431;45.580;-122.680;2022-07-09T08:07:15;0.40;;;0.40;;
31866;SDS011;18431;45.580;-122.680;2022-07-09T08:09:45;0.30;;;0.30;;
31866;SDS011;18431;45.580;-122.680;2022-07-09T08:12:15;0.40;;;0.40;;
31866;SDS011;18431;45.580;-122.680;2022-07-09T08:15:05;0.25;;;0.25;;
31866;SDS011;18431;45.580;-122.680;2022-07-09T08:17:37;0.40;;;0.30;;
31866;SDS011;18431;45.580;-122.680;2022-07-09T08:20:07;0.35;;;0.35;;
31866;SDS011;18431;45.580;-122.680;2022-07-09T08:22:37;0.25;;;0.25;;
31866;SDS011;18431;45.580;-122.680;2022-07-09T08:25:07;0.33;;;0.33;;
31866;SDS011;18431;45.580;-122.680;2022-07-09T08:27:37;0.33;;;0.33;;
31866;SDS011;18431;45.580;-122.680;2022-07-09T08:30:07;0.30;;;0.30;;
31866;SDS011;18431;45.580;-122.680;2022-07-09T08:32:38;0.30;;;0.30;;
31866;SDS011;18431;45.580;-122.680;2022-07-09T08:35:08;0.35;;;0.30;;
31866;SDS011;18431;45.580;-122.680;2022-07-09T08:37:38;1.02;;;0.30;;
31866;SDS011;18431;45.580;-122.680;2022-07-09T08:40:11;1.37;;;0.42;;
31866;SDS011;18431;45.580;-122.680;2022-07-09T08:42:41;0.70;;;0.40;;
31866;SDS011;18431;45.580;-122.680;2022-07-09T08:45:11;0.30;;;0.30;;
31866;SDS011;18431;45.580;-122.680;2022-07-09T08:47:43;0.25;;;0.25;;
31866;SDS011;18431;45.580;-122.680;2022-07-09T08:50:14;0.42;;;0.42;;
31866;SDS011;18431;45.580;-122.680;2022-07-09T08:52:46;0.23;;;0.23;;
31866;SDS011;18431;45.580;-122.680;2022-07-09T08:55:17;0.55;;;0.55;;
31866;SDS011;18431;45.580;-122.680;2022-07-09T08:57:47;0.40;;;0.40;;
31866;SDS011;18431;45.580;-122.680;2022-07-09T09:00:18;0.68;;;0.30;;
31866;SDS011;18431;45.580;-122.680;2022-07-09T09:02:49;0.30;;;0.30;;
31866;SDS011;18431;45.580;-122.680;2022-07-09T09:05:19;0.30;;;0.30;;
31866;SDS011;18431;45.580;-122.680;2022-07-09T09:07:49;0.35;;;0.35;;
31866;SDS011;18431;45.580;-122.680;2022-07-09T09:10:22;0.35;;;0.35;;
31866;SDS011;18431;45.580;-122.680;2022-07-09T09:13:01;0.20;;;0.20;;
31866;SDS011;18431;45.580;-122.680;2022-07-09T09:15:27;0.20;;;0.20;;
31866;SDS011;18431;45.580;-122.680;2022-07-09T09:17:57;0.33;;;0.33;;
31866;SDS011;18431;45.580;-122.680;2022-07-09T09:20:27;0.40;;;0.40;;
31866;SDS011;18431;45.580;-122.680;2022-07-09T09:22:58;0.30;;;0.30;;
31866;SDS011;18431;45.580;-122.680;2022-07-09T09:25:29;0.40;;;0.40;;
31866;SDS011;18431;45.580;-122.680;2022-07-09T09:28:01;0.30;;;0.30;;
31866;SDS011;18431;45.580;-122.680;2022-07-09T09:30:31;0.30;;;0.30;;
31866;SDS011;18431;45.580;-122.680;2022-07-09T09:33:03;0.40;;;0.40;;
31866;SDS011;18431;45.580;-122.680;2022-07-09T09:35:33;0.30;;;0.30;;
31866;SDS011;18431;45.580;-122.680;2022-07-09T09:38:03;0.30;;;0.30;;
31866;SDS011;18431;45.580;-122.680;2022-07-09T09:40:34;0.30;;;0.30;;
31866;SDS011;18431;45.580;-122.680;2022-07-09T09:43:05;0.65;;;0.42;;
31866;SDS011;18431;45.580;-122.680;2022-07-09T09:45:36;0.30;;;0.30;;
31866;SDS011;18431;45.580;-122.680;2022-07-09T09:48:06;0.35;;;0.30;;
31866;SDS011;18431;45.580;-122.680;2022-07-09T09:50:36;1.25;;;0.40;;
31866;SDS011;18431;45.580;-122.680;2022-07-09T09:53:07;0.30;;;0.30;;
31866;SDS011;18431;45.580;-122.680;2022-07-09T09:55:39;0.30;;;0.30;;
31866;SDS011;18431;45.580;-122.680;2022-07-09T09:58:10;0.30;;;0.30;;
31866;SDS011;18431;45.580;-122.680;2022-07-09T10:00:43;0.30;;;0.30;;
31866;SDS011;18431;45.580;-122.680;2022-07-09T10:03:12;0.28;;;0.28;;
31866;SDS011;18431;45.580;-122.680;2022-07-09T10:05:44;0.30;;;0.30;;
31866;SDS011;18431;45.580;-122.680;2022-07-09T10:08:15;0.30;;;0.30;;
31866;SDS011;18431;45.580;-122.680;2022-07-09T10:10:51;0.42;;;0.42;;
31866;SDS011;18431;45.580;-122.680;2022-07-09T10:13:21;0.35;;;0.35;;
31866;SDS011;18431;45.580;-122.680;2022-07-09T10:15:54;0.30;;;0.30;;
31866;SDS011;18431;45.580;-122.680;2022-07-09T10:18:23;0.30;;;0.30;;
31866;SDS011;18431;45.580;-122.680;2022-07-09T10:20:56;1.22;;;0.35;;
31866;SDS011;18431;45.580;-122.680;2022-07-09T10:23:26;0.30;;;0.28;;
31866;SDS011;18431;45.580;-122.680;2022-07-09T10:25:56;0.30;;;0.30;;
31866;SDS011;18431;45.580;-122.680;2022-07-09T10:28:26;0.20;;;0.20;;
31866;SDS011;18431;45.580;-122.680;2022-07-09T10:31:06;0.40;;;0.40;;
31866;SDS011;18431;45.580;-122.680;2022-07-09T10:33:36;0.20;;;0.20;;
31866;SDS011;18431;45.580;-122.680;2022-07-09T10:36:16;0.40;;;0.40;;
31866;SDS011;18431;45.580;-122.680;2022-07-09T10:38:51;0.30;;;0.30;;
31866;SDS011;18431;45.580;-122.680;2022-07-09T10:41:20;0.50;;;0.40;;
31866;SDS011;18431;45.580;-122.680;2022-07-09T10:43:50;0.42;;;0.40;;
31866;SDS011;18431;45.580;-122.680;2022-07-09T10:46:20;0.30;;;0.30;;
31866;SDS011;18431;45.580;-122.680;2022-07-09T10:48:50;0.23;;;0.23;;
31866;SDS011;18431;45.580;-122.680;2022-07-09T10:51:21;0.40;;;0.40;;
31866;SDS011;18431;45.580;-122.680;2022-07-09T10:53:52;0.30;;;0.30;;
31866;SDS011;18431;45.580;-122.680;2022-07-09T10:59:11;0.40;;;0.40;;
31866;SDS011;18431;45.580;-122.680;2022-07-09T11:01:45;0.40;;;0.40;;
31866;SDS011;18431;45.580;-122.680;2022-07-09T11:04:28;0.30;;;0.30;;
31866;SDS011;18431;45.580;-122.680;2022-07-09T11:06:55;0.30;;;0.30;;
31866;SDS011;18431;45.580;-122.680;2022-07-09T11:09:26;0.45;;;0.40;;
31866;SDS011;18431;45.580;-122.680;2022-07-09T11:11:56;0.28;;;0.28;;
31866;SDS011;18431;45.580;-122.680;2022-07-09T11:14:29;0.30;;;0.30;;
31866;SDS011;18431;45.580;-122.680;2022-07-09T11:16:59;0.35;;;0.35;;
31866;SDS011;18431;45.580;-122.680;2022-07-09T11:19:29;0.40;;;0.40;;
31866;SDS011;18431;45.580;-122.680;2022-07-09T11:22:02;0.30;;;0.30;;
31866;SDS011;18431;45.580;-122.680;2022-07-09T11:24:32;0.40;;;0.37;;
31866;SDS011;18431;45.580;-122.680;2022-07-09T11:27:09;0.30;;;0.30;;
31866;SDS011;18431;45.580;-122.680;2022-07-09T11:29:35;0.30;;;0.30;;
31866;SDS011;18431;45.580;-122.680;2022-07-09T11:32:05;0.35;;;0.35;;
31866;SDS011;18431;45.580;-122.680;2022-07-09T11:34:35;0.30;;;0.30;;
31866;SDS011;18431;45.580;-122.680;2022-07-09T11:37:08;0.30;;;0.30;;
31866;SDS011;18431;45.580;-122.680;2022-07-09T11:39:40;0.35;;;0.35;;
31866;SDS011;18431;45.580;-122.680;2022-07-09T11:42:14;0.30;;;0.30;;
31866;SDS011;18431;45.580;-122.680;2022-07-09T11:44:52;0.40;;;0.40;;
31866;SDS011;18431;45.580;-122.680;2022-07-09T11:47:31;0.30;;;0.30;;
31866;SDS011;18431;45.580;-122.680;2022-07-09T11:50:07;0.30;;;0.30;;
31866;SDS011;18431;45.580;-122.680;2022-07-09T11:52:44;0.30;;;0.30;;
31866;SDS011;18431;45.580;-122.680;2022-07-09T11:55:17;0.30;;;0.30;;
31866;SDS011;18431;45.580;-122.680;2022-07-09T11:57:51;0.50;;;0.30;;
31866;SDS011;18431;45.580;-122.680;2022-07-09T12:00:23;0.40;;;0.40;;
31866;SDS011;18431;45.580;-122.680;2022-07-09T12:02:55;0.33;;;0.33;;
31866;SDS011;18431;45.580;-122.680;2022-07-09T12:05:31;0.40;;;0.40;;
31866;SDS011;18431;45.580;-122.680;2022-07-09T12:08:28;0.30;;;0.30;;
31866;SDS011;18431;45.580;-122.680;2022-07-09T12:11:01;0.20;;;0.20;;
31866;SDS011;18431;45.580;-122.680;2022-07-09T12:13:30;0.20;;;0.20;;
31866;SDS011;18431;45.580;-122.680;2022-07-09T12:16:00;0.30;;;0.30;;
31866;SDS011;18431;45.580;-122.680;2022-07-09T12:18:29;0.30;;;0.30;;
31866;SDS011;18431;45.580;-122.680;2022-07-09T12:20:59;0.20;;;0.20;;
31866;SDS011;18431;45.580;-122.680;2022-07-09T12:23:29;0.30;;;0.30;;
31866;SDS011;18431;45.580;-122.680;2022-07-09T12:25:59;0.20;;;0.20;;
31866;SDS011;18431;45.580;-122.680;2022-07-09T12:28:29;0.50;;;0.50;;
31866;SDS011;18431;45.580;-122.680;2022-07-09T12:30:59;0.30;;;0.30;;
31866;SDS011;18431;45.580;-122.680;2022-07-09T12:33:29;0.30;;;0.30;;
31866;SDS011;18431;45.580;-122.680;2022-07-09T12:35:59;0.50;;;0.50;;
31866;SDS011;18431;45.580;-122.680;2022-07-09T12:38:29;0.33;;;0.33;;
31866;SDS011;18431;45.580;-122.680;2022-07-09T12:40:59;0.50;;;0.50;;
31866;SDS011;18431;45.580;-122.680;2022-07-09T12:43:29;0.40;;;0.40;;
31866;SDS011;18431;45.580;-122.680;2022-07-09T12:46:00;0.30;;;0.30;;
31866;SDS011;18431;45.580;-122.680;2022-07-09T12:48:30;0.25;;;0.25;;
31866;SDS011;18431;45.580;-122.680;2022-07-09T12:51:01;0.30;;;0.30;;
31866;SDS011;18431;45.580;-122.680;2022-07-09T12:53:31;0.35;;;0.35;;
31866;SDS011;18431;45.580;-122.680;2022-07-09T12:56:01;0.40;;;0.40;;
31866;SDS011;18431;45.580;-122.680;2022-07-09T12:58:30;0.50;;;0.50;;
31866;SDS011;18431;45.580;-122.680;2022-07-09T13:01:00;0.40;;;0.40;;
31866;SDS011;18431;45.580;-122.680;2022-07-09T13:03:30;0.40;;;0.40;;
31866;SDS011;18431;45.580;-122.680;2022-07-09T13:06:00;0.40;;;0.40;;
31866;SDS011;18431;45.580;-122.680;2022-07-09T13:08:31;0.40;;;0.40;;
31866;SDS011;18431;45.580;-122.680;2022-07-09T13:11:01;0.30;;;0.30;;
31866;SDS011;18431;45.580;-122.680;2022-07-09T13:13:31;0.42;;;0.42;;
31866;SDS011;18431;45.580;-122.680;2022-07-09T13:16:02;0.37;;;0.37;;
31866;SDS011;18431;45.580;-122.680;2022-07-09T13:18:32;0.30;;;0.30;;
31866;SDS011;18431;45.580;-122.680;2022-07-09T13:21:02;0.37;;;0.37;;
31866;SDS011;18431;45.580;-122.680;2022-07-09T13:23:32;0.33;;;0.33;;
31866;SDS011;18431;45.580;-122.680;2022-07-09T13:26:02;0.33;;;0.33;;
31866;SDS011;18431;45.580;-122.680;2022-07-09T13:28:31;0.40;;;0.40;;
31866;SDS011;18431;45.580;-122.680;2022-07-09T13:31:01;0.30;;;0.30;;
31866;SDS011;18431;45.580;-122.680;2022-07-09T13:33:33;0.42;;;0.42;;
31866;SDS011;18431;45.580;-122.680;2022-07-09T13:38:51;0.30;;;0.30;;
31866;SDS011;18431;45.580;-122.680;2022-07-09T13:41:21;0.37;;;0.37;;
31866;SDS011;18431;45.580;-122.680;2022-07-09T13:43:51;0.40;;;0.40;;
31866;SDS011;18431;45.580;-122.680;2022-07-09T13:46:21;0.42;;;0.42;;
31866;SDS011;18431;45.580;-122.680;2022-07-09T13:48:51;0.35;;;0.35;;
31866;SDS011;18431;45.580;-122.680;2022-07-09T13:54:09;0.62;;;0.30;;
31866;SDS011;18431;45.580;-122.680;2022-07-09T13:56:39;0.30;;;0.30;;
31866;SDS011;18431;45.580;-122.680;2022-07-09T13:59:09;0.30;;;0.30;;
31866;SDS011;18431;45.580;-122.680;2022-07-09T14:01:39;0.42;;;0.30;;
31866;SDS011;18431;45.580;-122.680;2022-07-09T14:04:08;0.30;;;0.30;;
31866;SDS011;18431;45.580;-122.680;2022-07-09T14:06:38;0.50;;;0.30;;
31866;SDS011;18431;45.580;-122.680;2022-07-09T14:09:08;0.20;;;0.20;;
31866;SDS011;18431;45.580;-122.680;2022-07-09T14:11:38;0.40;;;0.40;;
31866;SDS011;18431;45.580;-122.680;2022-07-09T14:14:08;0.40;;;0.40;;
31866;SDS011;18431;45.580;-122.680;2022-07-09T14:16:38;0.50;;;0.50;;
31866;SDS011;18431;45.580;-122.680;2022-07-09T14:19:08;0.30;;;0.30;;
31866;SDS011;18431;45.580;-122.680;2022-07-09T14:21:38;0.33;;;0.33;;
31866;SDS011;18431;45.580;-122.680;2022-07-09T14:24:08;0.50;;;0.50;;
31866;SDS011;18431;45.580;-122.680;2022-07-09T14:26:38;0.50;;;0.50;;
31866;SDS011;18431;45.580;-122.680;2022-07-09T14:31:59;0.20;;;0.20;;
31866;SDS011;18431;45.580;-122.680;2022-07-09T14:34:29;0.37;;;0.37;;
31866;SDS011;18431;45.580;-122.680;2022-07-09T14:36:59;0.50;;;0.50;;
31866;SDS011;18431;45.580;-122.680;2022-07-09T14:39:29;0.30;;;0.30;;
31866;SDS011;18431;45.580;-122.680;2022-07-09T14:41:59;0.30;;;0.30;;
31866;SDS011;18431;45.580;-122.680;2022-07-09T14:44:29;0.40;;;0.40;;
31866;SDS011;18431;45.580;-122.680;2022-07-09T14:46:59;0.55;;;0.30;;
31866;SDS011;18431;45.580;-122.680;2022-07-09T14:49:29;0.50;;;0.50;;
31866;SDS011;18431;45.580;-122.680;2022-07-09T14:51:59;0.23;;;0.23;;